sensor_id;sensor_type;location;lat;lon;timestamp;temperature;humidity
66328;DHT22;53133;52.862;6.602;2023-03-01T00:01:34;1.50;99.90
66328;DHT22;53133;52.862;6.602;2023-03-01T00:04:00;1.50;99.90
66328;DHT22;53133;52.862;6.602;2023-03-01T00:06:26;1.50;99.90
66328;DHT22;53133;52.862;6.602;2023-03-01T00:08:52;1.50;99.90
66328;DHT22;53133;52.862;6.602;2023-03-01T00:11:20;1.50;99.90
66328;DHT22;53133;52.862;6.602;2023-03-01T00:13:47;1.50;99.90
66328;DHT22;53133;52.862;6.602;2023-03-01T00:16:17;1.50;99.90
66328;DHT22;53133;52.862;6.602;2023-03-01T00:18:43;1.50;99.90
66328;DHT22;53133;52.862;6.602;2023-03-01T00:21:09;1.40;99.90
66328;DHT22;53133;52.862;6.602;2023-03-01T00:23:36;1.40;99.90
66328;DHT22;53133;52.862;6.602;2023-03-01T00:26:02;1.40;99.90
66328;DHT22;53133;52.862;6.602;2023-03-01T00:28:27;1.40;99.90
66328;DHT22;53133;52.862;6.602;2023-03-01T00:30:53;1.40;99.90
66328;DHT22;53133;52.862;6.602;2023-03-01T00:33:19;1.30;99.90
66328;DHT22;53133;52.862;6.602;2023-03-01T00:35:44;1.30;99.90
66328;DHT22;53133;52.862;6.602;2023-03-01T00:38:10;1.30;99.90
66328;DHT22;53133;52.862;6.602;2023-03-01T00:40:36;1.30;99.90
66328;DHT22;53133;52.862;6.602;2023-03-01T00:43:02;1.20;99.90
66328;DHT22;53133;52.862;6.602;2023-03-01T00:45:28;1.20;99.90
66328;DHT22;53133;52.862;6.602;2023-03-01T00:47:56;1.20;99.90
66328;DHT22;53133;52.862;6.602;2023-03-01T00:50:22;1.20;99.90
66328;DHT22;53133;52.862;6.602;2023-03-01T00:52:52;1.20;99.90
66328;DHT22;53133;52.862;6.602;2023-03-01T00:55:18;1.20;99.90
66328;DHT22;53133;52.862;6.602;2023-03-01T00:57:43;1.20;99.90
66328;DHT22;53133;52.862;6.602;2023-03-01T01:00:09;1.10;99.90
66328;DHT22;53133;52.862;6.602;2023-03-01T01:02:36;1.10;99.90
66328;DHT22;53133;52.862;6.602;2023-03-01T01:05:02;1.10;99.90
66328;DHT22;53133;52.862;6.602;2023-03-01T01:07:28;1.10;99.90
66328;DHT22;53133;52.862;6.602;2023-03-01T01:09:53;1.10;99.90
66328;DHT22;53133;52.862;6.602;2023-03-01T01:12:19;1.10;99.90
66328;DHT22;53133;52.862;6.602;2023-03-01T01:14:44;1.10;99.90
66328;DHT22;53133;52.862;6.602;2023-03-01T01:17:10;1.10;99.90
66328;DHT22;53133;52.862;6.602;2023-03-01T01:19:36;1.10;99.90
66328;DHT22;53133;52.862;6.602;2023-03-01T01:22:01;1.10;99.90
66328;DHT22;53133;52.862;6.602;2023-03-01T01:24:27;1.10;99.90
66328;DHT22;53133;52.862;6.602;2023-03-01T01:26:53;1.00;99.90
66328;DHT22;53133;52.862;6.602;2023-03-01T01:29:18;1.10;99.90
66328;DHT22;53133;52.862;6.602;2023-03-01T01:31:44;1.00;99.90
66328;DHT22;53133;52.862;6.602;2023-03-01T01:34:15;1.00;99.90
66328;DHT22;53133;52.862;6.602;2023-03-01T01:36:41;1.00;99.90
66328;DHT22;53133;52.862;6.602;2023-03-01T01:39:07;1.00;99.90
66328;DHT22;53133;52.862;6.602;2023-03-01T01:41:33;1.00;99.90
66328;DHT22;53133;52.862;6.602;2023-03-01T01:44:18;1.00;99.90
66328;DHT22;53133;52.862;6.602;2023-03-01T01:46:53;1.00;99.90
66328;DHT22;53133;52.862;6.602;2023-03-01T01:52:34;1.00;99.90
66328;DHT22;53133;52.862;6.602;2023-03-01T01:55:17;0.90;99.90
66328;DHT22;53133;52.862;6.602;2023-03-01T01:57:49;0.90;99.90
66328;DHT22;53133;52.862;6.602;2023-03-01T02:00:20;0.80;99.90
66328;DHT22;53133;52.862;6.602;2023-03-01T02:02:48;0.80;99.90
66328;DHT22;53133;52.862;6.602;2023-03-01T02:08:11;0.70;99.90
66328;DHT22;53133;52.862;6.602;2023-03-01T02:10:38;0.70;99.90
66328;DHT22;53133;52.862;6.602;2023-03-01T02:13:04;0.70;99.90
66328;DHT22;53133;52.862;6.602;2023-03-01T02:15:34;0.60;99.90
66328;DHT22;53133;52.862;6.602;2023-03-01T02:18:01;0.60;99.90
66328;DHT22;53133;52.862;6.602;2023-03-01T02:20:40;0.60;99.90
66328;DHT22;53133;52.862;6.602;2023-03-01T02:23:08;0.60;99.90
66328;DHT22;53133;52.862;6.602;2023-03-01T02:25:50;0.60;99.90
66328;DHT22;53133;52.862;6.602;2023-03-01T02:28:47;0.50;99.90
66328;DHT22;53133;52.862;6.602;2023-03-01T02:31:18;0.50;99.90
66328;DHT22;53133;52.862;6.602;2023-03-01T02:34:04;0.50;99.90
66328;DHT22;53133;52.862;6.602;2023-03-01T02:36:36;0.40;99.90
66328;DHT22;53133;52.862;6.602;2023-03-01T02:39:04;0.40;99.90
66328;DHT22;53133;52.862;6.602;2023-03-01T02:41:36;0.40;99.90
66328;DHT22;53133;52.862;6.602;2023-03-01T02:44:03;0.40;99.90
66328;DHT22;53133;52.862;6.602;2023-03-01T02:46:29;0.40;99.90
66328;DHT22;53133;52.862;6.602;2023-03-01T02:48:57;0.40;99.90
66328;DHT22;53133;52.862;6.602;2023-03-01T02:54:39;0.30;99.90
66328;DHT22;53133;52.862;6.602;2023-03-01T02:57:05;0.30;99.90
66328;DHT22;53133;52.862;6.602;2023-03-01T02:59:32;0.20;99.90
66328;DHT22;53133;52.862;6.602;2023-03-01T03:02:05;0.20;99.90
66328;DHT22;53133;52.862;6.602;2023-03-01T03:04:30;0.20;99.90
66328;DHT22;53133;52.862;6.602;2023-03-01T03:06:56;0.20;99.90
66328;DHT22;53133;52.862;6.602;2023-03-01T03:09:21;0.10;99.90
66328;DHT22;53133;52.862;6.602;2023-03-01T03:11:47;0.10;99.90
66328;DHT22;53133;52.862;6.602;2023-03-01T03:14:15;0.10;99.90
66328;DHT22;53133;52.862;6.602;2023-03-01T03:16:43;0.10;99.90
66328;DHT22;53133;52.862;6.602;2023-03-01T03:19:09;0.10;99.90
66328;DHT22;53133;52.862;6.602;2023-03-01T03:21:35;0.10;99.90
66328;DHT22;53133;52.862;6.602;2023-03-01T03:24:01;0.10;99.90
66328;DHT22;53133;52.862;6.602;2023-03-01T03:26:27;0.10;99.90
66328;DHT22;53133;52.862;6.602;2023-03-01T03:28:53;0.20;99.90
66328;DHT22;53133;52.862;6.602;2023-03-01T03:31:18;0.20;99.90
66328;DHT22;53133;52.862;6.602;2023-03-01T03:33:44;0.20;99.90
66328;DHT22;53133;52.862;6.602;2023-03-01T03:36:14;0.20;99.90
66328;DHT22;53133;52.862;6.602;2023-03-01T03:38:43;0.20;99.90
66328;DHT22;53133;52.862;6.602;2023-03-01T03:41:09;0.20;99.90
66328;DHT22;53133;52.862;6.602;2023-03-01T03:43:37;0.10;99.90
66328;DHT22;53133;52.862;6.602;2023-03-01T03:46:03;0.10;99.90
66328;DHT22;53133;52.862;6.602;2023-03-01T03:48:35;0.10;99.90
66328;DHT22;53133;52.862;6.602;2023-03-01T03:51:01;0.00;99.90
66328;DHT22;53133;52.862;6.602;2023-03-01T03:53:28;0.00;99.90
66328;DHT22;53133;52.862;6.602;2023-03-01T03:55:54;0.00;99.90
66328;DHT22;53133;52.862;6.602;2023-03-01T03:58:23;-0.10;99.90
66328;DHT22;53133;52.862;6.602;2023-03-01T04:00:51;-0.10;99.90
66328;DHT22;53133;52.862;6.602;2023-03-01T04:03:18;-0.20;99.90
66328;DHT22;53133;52.862;6.602;2023-03-01T04:05:45;-0.20;99.90
66328;DHT22;53133;52.862;6.602;2023-03-01T04:08:12;-0.20;99.90
66328;DHT22;53133;52.862;6.602;2023-03-01T04:10:40;-0.20;99.90
66328;DHT22;53133;52.862;6.602;2023-03-01T04:13:09;-0.20;99.90
66328;DHT22;53133;52.862;6.602;2023-03-01T04:15:35;-0.20;99.90
66328;DHT22;53133;52.862;6.602;2023-03-01T04:18:02;-0.30;99.90
66328;DHT22;53133;52.862;6.602;2023-03-01T04:20:30;-0.30;99.90
66328;DHT22;53133;52.862;6.602;2023-03-01T04:23:05;-0.40;99.90
66328;DHT22;53133;52.862;6.602;2023-03-01T04:25:39;-0.40;99.90
66328;DHT22;53133;52.862;6.602;2023-03-01T04:28:05;-0.50;99.90
66328;DHT22;53133;52.862;6.602;2023-03-01T04:30:31;-0.50;99.90
66328;DHT22;53133;52.862;6.602;2023-03-01T04:33:04;-0.50;99.90
66328;DHT22;53133;52.862;6.602;2023-03-01T04:35:31;-0.40;99.90
66328;DHT22;53133;52.862;6.602;2023-03-01T04:37:57;-0.40;99.90
66328;DHT22;53133;52.862;6.602;2023-03-01T04:40:23;-0.40;99.90
66328;DHT22;53133;52.862;6.602;2023-03-01T04:42:49;-0.50;99.90
66328;DHT22;53133;52.862;6.602;2023-03-01T04:45:14;-0.50;99.90
66328;DHT22;53133;52.862;6.602;2023-03-01T04:47:41;-0.50;99.90
66328;DHT22;53133;52.862;6.602;2023-03-01T04:50:08;-0.50;99.90
66328;DHT22;53133;52.862;6.602;2023-03-01T04:52:34;-0.50;99.90
66328;DHT22;53133;52.862;6.602;2023-03-01T04:55:01;-0.50;99.90
66328;DHT22;53133;52.862;6.602;2023-03-01T04:57:26;-0.60;99.90
66328;DHT22;53133;52.862;6.602;2023-03-01T04:59:52;-0.50;99.90
66328;DHT22;53133;52.862;6.602;2023-03-01T05:02:17;-0.60;99.90
66328;DHT22;53133;52.862;6.602;2023-03-01T05:04:43;-0.60;99.90
66328;DHT22;53133;52.862;6.602;2023-03-01T05:07:08;-0.60;99.90
66328;DHT22;53133;52.862;6.602;2023-03-01T05:09:34;-0.60;99.90
66328;DHT22;53133;52.862;6.602;2023-03-01T05:12:00;-0.60;99.90
66328;DHT22;53133;52.862;6.602;2023-03-01T05:14:25;-0.70;99.90
66328;DHT22;53133;52.862;6.602;2023-03-01T05:16:51;-0.70;99.90
66328;DHT22;53133;52.862;6.602;2023-03-01T05:19:17;-0.70;99.90
66328;DHT22;53133;52.862;6.602;2023-03-01T05:21:48;-0.70;99.90
66328;DHT22;53133;52.862;6.602;2023-03-01T05:24:31;-0.70;99.90
66328;DHT22;53133;52.862;6.602;2023-03-01T05:26:58;-0.70;99.90
66328;DHT22;53133;52.862;6.602;2023-03-01T05:29:25;-0.70;99.90
66328;DHT22;53133;52.862;6.602;2023-03-01T05:31:52;-0.70;99.90
66328;DHT22;53133;52.862;6.602;2023-03-01T05:34:22;-0.70;99.90
66328;DHT22;53133;52.862;6.602;2023-03-01T05:36:48;-0.80;99.90
66328;DHT22;53133;52.862;6.602;2023-03-01T05:39:22;-0.80;99.90
66328;DHT22;53133;52.862;6.602;2023-03-01T05:41:51;-0.80;99.90
66328;DHT22;53133;52.862;6.602;2023-03-01T05:44:17;-0.80;99.90
66328;DHT22;53133;52.862;6.602;2023-03-01T05:46:43;-0.80;99.90
66328;DHT22;53133;52.862;6.602;2023-03-01T05:49:08;-0.80;99.90
66328;DHT22;53133;52.862;6.602;2023-03-01T05:51:34;-0.90;99.90
66328;DHT22;53133;52.862;6.602;2023-03-01T05:53:59;-0.90;99.90
66328;DHT22;53133;52.862;6.602;2023-03-01T05:56:25;-0.90;99.90
66328;DHT22;53133;52.862;6.602;2023-03-01T05:58:51;-0.90;99.90
66328;DHT22;53133;52.862;6.602;2023-03-01T06:01:16;-0.90;99.90
66328;DHT22;53133;52.862;6.602;2023-03-01T06:03:42;-0.90;99.90
66328;DHT22;53133;52.862;6.602;2023-03-01T06:06:08;-0.90;99.90
66328;DHT22;53133;52.862;6.602;2023-03-01T06:08:33;-1.00;99.90
66328;DHT22;53133;52.862;6.602;2023-03-01T06:10:59;-1.00;99.90
66328;DHT22;53133;52.862;6.602;2023-03-01T06:13:24;-1.00;99.90
66328;DHT22;53133;52.862;6.602;2023-03-01T06:15:50;-1.00;99.90
66328;DHT22;53133;52.862;6.602;2023-03-01T06:18:16;-1.00;99.90
66328;DHT22;53133;52.862;6.602;2023-03-01T06:20:41;-1.00;99.90
66328;DHT22;53133;52.862;6.602;2023-03-01T06:23:07;-1.00;99.90
66328;DHT22;53133;52.862;6.602;2023-03-01T06:25:33;-1.00;99.90
66328;DHT22;53133;52.862;6.602;2023-03-01T06:27:58;-1.00;99.90
66328;DHT22;53133;52.862;6.602;2023-03-01T06:30:25;-1.00;99.90
66328;DHT22;53133;52.862;6.602;2023-03-01T06:32:52;-1.00;99.90
66328;DHT22;53133;52.862;6.602;2023-03-01T06:35:19;-1.00;99.90
66328;DHT22;53133;52.862;6.602;2023-03-01T06:37:46;-0.90;99.90
66328;DHT22;53133;52.862;6.602;2023-03-01T06:40:12;-0.90;99.90
66328;DHT22;53133;52.862;6.602;2023-03-01T06:42:41;-0.90;99.90
66328;DHT22;53133;52.862;6.602;2023-03-01T06:45:07;-0.90;99.90
66328;DHT22;53133;52.862;6.602;2023-03-01T06:47:33;-0.90;99.90
66328;DHT22;53133;52.862;6.602;2023-03-01T06:50:00;-0.90;99.90
66328;DHT22;53133;52.862;6.602;2023-03-01T06:52:26;-0.90;99.90
66328;DHT22;53133;52.862;6.602;2023-03-01T06:54:51;-0.90;99.90
66328;DHT22;53133;52.862;6.602;2023-03-01T06:57:17;-0.90;99.90
66328;DHT22;53133;52.862;6.602;2023-03-01T06:59:43;-0.90;99.90
66328;DHT22;53133;52.862;6.602;2023-03-01T07:02:10;-0.80;99.90
66328;DHT22;53133;52.862;6.602;2023-03-01T07:04:37;-0.90;99.90
66328;DHT22;53133;52.862;6.602;2023-03-01T07:07:02;-0.90;99.90
66328;DHT22;53133;52.862;6.602;2023-03-01T07:09:28;-0.90;99.90
66328;DHT22;53133;52.862;6.602;2023-03-01T07:11:53;-0.90;99.90
66328;DHT22;53133;52.862;6.602;2023-03-01T07:14:20;-0.90;99.90
66328;DHT22;53133;52.862;6.602;2023-03-01T07:16:46;-0.90;99.90
66328;DHT22;53133;52.862;6.602;2023-03-01T07:19:11;-0.80;99.90
66328;DHT22;53133;52.862;6.602;2023-03-01T07:21:37;-0.80;99.90
66328;DHT22;53133;52.862;6.602;2023-03-01T07:24:08;-0.80;99.90
66328;DHT22;53133;52.862;6.602;2023-03-01T07:26:34;-0.80;99.90
66328;DHT22;53133;52.862;6.602;2023-03-01T07:29:04;-0.70;99.90
66328;DHT22;53133;52.862;6.602;2023-03-01T07:31:30;-0.70;99.90
66328;DHT22;53133;52.862;6.602;2023-03-01T07:33:56;-0.60;99.90
66328;DHT22;53133;52.862;6.602;2023-03-01T07:36:22;-0.60;99.90
66328;DHT22;53133;52.862;6.602;2023-03-01T07:38:48;-0.60;99.90
66328;DHT22;53133;52.862;6.602;2023-03-01T07:41:14;-0.50;99.90
66328;DHT22;53133;52.862;6.602;2023-03-01T07:43:40;-0.50;99.90
66328;DHT22;53133;52.862;6.602;2023-03-01T07:46:06;-0.40;99.90
66328;DHT22;53133;52.862;6.602;2023-03-01T07:48:32;-0.30;99.90
66328;DHT22;53133;52.862;6.602;2023-03-01T07:50:59;-0.20;99.90
66328;DHT22;53133;52.862;6.602;2023-03-01T07:53:25;-0.20;99.90
66328;DHT22;53133;52.862;6.602;2023-03-01T07:56:01;-0.10;99.90
66328;DHT22;53133;52.862;6.602;2023-03-01T07:58:26;-0.10;99.90
66328;DHT22;53133;52.862;6.602;2023-03-01T08:00:52;0.00;99.90
66328;DHT22;53133;52.862;6.602;2023-03-01T08:03:17;0.00;99.90
66328;DHT22;53133;52.862;6.602;2023-03-01T08:05:43;0.10;99.90
66328;DHT22;53133;52.862;6.602;2023-03-01T08:08:08;0.10;99.90
66328;DHT22;53133;52.862;6.602;2023-03-01T08:10:36;0.30;99.90
66328;DHT22;53133;52.862;6.602;2023-03-01T08:13:02;0.30;99.90
66328;DHT22;53133;52.862;6.602;2023-03-01T08:15:27;0.30;99.90
66328;DHT22;53133;52.862;6.602;2023-03-01T08:17:53;0.30;99.90
66328;DHT22;53133;52.862;6.602;2023-03-01T08:20:18;0.40;99.90
66328;DHT22;53133;52.862;6.602;2023-03-01T08:22:44;0.40;99.90
66328;DHT22;53133;52.862;6.602;2023-03-01T08:25:09;0.50;99.90
66328;DHT22;53133;52.862;6.602;2023-03-01T08:27:35;0.60;99.90
66328;DHT22;53133;52.862;6.602;2023-03-01T08:30:00;0.60;99.90
66328;DHT22;53133;52.862;6.602;2023-03-01T08:32:26;0.60;99.90
66328;DHT22;53133;52.862;6.602;2023-03-01T08:34:52;0.70;99.90
66328;DHT22;53133;52.862;6.602;2023-03-01T08:37:17;0.80;99.90
66328;DHT22;53133;52.862;6.602;2023-03-01T08:39:43;0.80;99.90
66328;DHT22;53133;52.862;6.602;2023-03-01T08:42:09;0.80;99.90
66328;DHT22;53133;52.862;6.602;2023-03-01T08:44:34;0.90;99.90
66328;DHT22;53133;52.862;6.602;2023-03-01T08:47:00;0.90;99.90
66328;DHT22;53133;52.862;6.602;2023-03-01T08:49:27;1.00;99.90
66328;DHT22;53133;52.862;6.602;2023-03-01T08:51:53;1.00;99.90
66328;DHT22;53133;52.862;6.602;2023-03-01T08:54:21;1.10;99.90
66328;DHT22;53133;52.862;6.602;2023-03-01T08:56:47;1.10;99.90
66328;DHT22;53133;52.862;6.602;2023-03-01T08:59:14;1.20;99.90
66328;DHT22;53133;52.862;6.602;2023-03-01T09:01:40;1.30;99.90
66328;DHT22;53133;52.862;6.602;2023-03-01T09:04:05;1.30;99.90
66328;DHT22;53133;52.862;6.602;2023-03-01T09:06:32;1.30;99.90
66328;DHT22;53133;52.862;6.602;2023-03-01T09:08:59;1.40;99.90
66328;DHT22;53133;52.862;6.602;2023-03-01T09:11:24;1.50;99.90
66328;DHT22;53133;52.862;6.602;2023-03-01T09:13:50;1.50;99.90
66328;DHT22;53133;52.862;6.602;2023-03-01T09:16:18;1.60;99.90
66328;DHT22;53133;52.862;6.602;2023-03-01T09:18:49;1.60;99.90
66328;DHT22;53133;52.862;6.602;2023-03-01T09:21:16;1.70;99.90
66328;DHT22;53133;52.862;6.602;2023-03-01T09:23:45;1.80;99.90
66328;DHT22;53133;52.862;6.602;2023-03-01T09:26:13;1.80;99.90
66328;DHT22;53133;52.862;6.602;2023-03-01T09:28:40;1.90;99.90
66328;DHT22;53133;52.862;6.602;2023-03-01T09:31:09;1.90;99.90
66328;DHT22;53133;52.862;6.602;2023-03-01T09:33:39;2.00;99.90
66328;DHT22;53133;52.862;6.602;2023-03-01T09:36:06;2.10;99.90
66328;DHT22;53133;52.862;6.602;2023-03-01T09:38:33;2.20;99.90
66328;DHT22;53133;52.862;6.602;2023-03-01T09:41:00;2.20;99.90
66328;DHT22;53133;52.862;6.602;2023-03-01T09:46:10;2.40;99.90
66328;DHT22;53133;52.862;6.602;2023-03-01T09:48:46;2.40;99.90
66328;DHT22;53133;52.862;6.602;2023-03-01T09:51:18;2.50;99.90
66328;DHT22;53133;52.862;6.602;2023-03-01T09:53:44;2.50;99.90
66328;DHT22;53133;52.862;6.602;2023-03-01T09:56:19;2.60;99.90
66328;DHT22;53133;52.862;6.602;2023-03-01T09:58:59;2.70;99.90
66328;DHT22;53133;52.862;6.602;2023-03-01T10:04:45;2.80;99.90
66328;DHT22;53133;52.862;6.602;2023-03-01T10:09:45;2.80;99.90
66328;DHT22;53133;52.862;6.602;2023-03-01T10:12:17;2.90;99.90
66328;DHT22;53133;52.862;6.602;2023-03-01T10:15:04;3.00;99.90
66328;DHT22;53133;52.862;6.602;2023-03-01T10:17:54;3.00;99.90
66328;DHT22;53133;52.862;6.602;2023-03-01T10:20:26;3.10;99.90
66328;DHT22;53133;52.862;6.602;2023-03-01T10:22:55;3.20;99.90
66328;DHT22;53133;52.862;6.602;2023-03-01T10:25:41;3.20;99.90
66328;DHT22;53133;52.862;6.602;2023-03-01T10:28:25;3.30;99.90
66328;DHT22;53133;52.862;6.602;2023-03-01T10:30:54;3.30;99.90
66328;DHT22;53133;52.862;6.602;2023-03-01T10:33:33;3.40;99.90
66328;DHT22;53133;52.862;6.602;2023-03-01T10:36:00;3.50;99.90
66328;DHT22;53133;52.862;6.602;2023-03-01T10:38:30;3.60;99.90
66328;DHT22;53133;52.862;6.602;2023-03-01T10:40:59;3.60;99.90
66328;DHT22;53133;52.862;6.602;2023-03-01T10:43:40;3.70;99.90
66328;DHT22;53133;52.862;6.602;2023-03-01T10:46:34;3.80;99.90
66328;DHT22;53133;52.862;6.602;2023-03-01T10:49:14;3.90;99.90
66328;DHT22;53133;52.862;6.602;2023-03-01T10:51:42;3.90;99.90
66328;DHT22;53133;52.862;6.602;2023-03-01T10:54:32;4.00;99.90
66328;DHT22;53133;52.862;6.602;2023-03-01T10:57:00;4.10;99.90
66328;DHT22;53133;52.862;6.602;2023-03-01T10:59:27;4.20;99.90
66328;DHT22;53133;52.862;6.602;2023-03-01T11:08:06;4.50;99.90
66328;DHT22;53133;52.862;6.602;2023-03-01T11:10:34;4.50;99.10
66328;DHT22;53133;52.862;6.602;2023-03-01T11:13:18;4.60;99.90
66328;DHT22;53133;52.862;6.602;2023-03-01T11:15:59;4.60;98.50
66328;DHT22;53133;52.862;6.602;2023-03-01T11:18:26;4.60;99.00
66328;DHT22;53133;52.862;6.602;2023-03-01T11:20:53;4.70;98.40
66328;DHT22;53133;52.862;6.602;2023-03-01T11:23:21;4.70;98.70
66328;DHT22;53133;52.862;6.602;2023-03-01T11:25:55;4.80;99.00
66328;DHT22;53133;52.862;6.602;2023-03-01T11:28:22;4.80;99.30
66328;DHT22;53133;52.862;6.602;2023-03-01T11:30:55;4.90;98.70
66328;DHT22;53133;52.862;6.602;2023-03-01T11:33:30;5.00;97.30
66328;DHT22;53133;52.862;6.602;2023-03-01T11:36:07;5.10;97.00
66328;DHT22;53133;52.862;6.602;2023-03-01T11:38:35;5.10;96.20
66328;DHT22;53133;52.862;6.602;2023-03-01T11:41:17;5.20;97.30
66328;DHT22;53133;52.862;6.602;2023-03-01T11:43:57;5.30;96.60
66328;DHT22;53133;52.862;6.602;2023-03-01T11:52:22;5.50;96.90
66328;DHT22;53133;52.862;6.602;2023-03-01T11:55:29;5.60;95.10
66328;DHT22;53133;52.862;6.602;2023-03-01T12:00:56;5.70;95.40
66328;DHT22;53133;52.862;6.602;2023-03-01T12:06:40;5.70;94.50
66328;DHT22;53133;52.862;6.602;2023-03-01T12:14:47;5.80;94.10
66328;DHT22;53133;52.862;6.602;2023-03-01T12:17:26;5.90;93.70
66328;DHT22;53133;52.862;6.602;2023-03-01T12:25:39;6.00;93.80
66328;DHT22;53133;52.862;6.602;2023-03-01T12:28:29;6.00;94.00
66328;DHT22;53133;52.862;6.602;2023-03-01T12:31:21;6.10;92.50
66328;DHT22;53133;52.862;6.602;2023-03-01T12:50:25;6.40;94.20
66328;DHT22;53133;52.862;6.602;2023-03-01T12:52:57;6.40;93.50
66328;DHT22;53133;52.862;6.602;2023-03-01T12:55:29;6.40;93.90
66328;DHT22;53133;52.862;6.602;2023-03-01T13:01:14;6.50;93.30
66328;DHT22;53133;52.862;6.602;2023-03-01T13:04:02;6.50;92.80
66328;DHT22;53133;52.862;6.602;2023-03-01T13:11:49;6.60;93.20
66328;DHT22;53133;52.862;6.602;2023-03-01T13:16:49;6.70;91.70
66328;DHT22;53133;52.862;6.602;2023-03-01T13:19:23;6.70;91.50
66328;DHT22;53133;52.862;6.602;2023-03-01T13:21:51;6.70;91.50
66328;DHT22;53133;52.862;6.602;2023-03-01T13:24:42;6.70;89.70
66328;DHT22;53133;52.862;6.602;2023-03-01T13:32:26;6.90;90.50
66328;DHT22;53133;52.862;6.602;2023-03-01T13:34:58;6.90;90.60
66328;DHT22;53133;52.862;6.602;2023-03-01T13:37:35;6.90;91.10
66328;DHT22;53133;52.862;6.602;2023-03-01T13:40:56;6.90;84.70
66328;DHT22;53133;52.862;6.602;2023-03-01T13:42:52;6.90;90.40
66328;DHT22;53133;52.862;6.602;2023-03-01T13:45:21;6.90;90.50
66328;DHT22;53133;52.862;6.602;2023-03-01T13:47:59;7.00;89.50
66328;DHT22;53133;52.862;6.602;2023-03-01T13:50:35;7.00;87.70
66328;DHT22;53133;52.862;6.602;2023-03-01T13:53:05;7.00;90.30
66328;DHT22;53133;52.862;6.602;2023-03-01T13:55:55;7.00;90.80
66328;DHT22;53133;52.862;6.602;2023-03-01T13:58:26;7.10;90.50
66328;DHT22;53133;52.862;6.602;2023-03-01T14:01:00;7.10;91.20
66328;DHT22;53133;52.862;6.602;2023-03-01T14:03:27;7.10;91.40
66328;DHT22;53133;52.862;6.602;2023-03-01T14:06:08;7.20;91.80
66328;DHT22;53133;52.862;6.602;2023-03-01T14:08:35;7.20;91.20
66328;DHT22;53133;52.862;6.602;2023-03-01T14:19:41;7.40;90.80
66328;DHT22;53133;52.862;6.602;2023-03-01T14:22:18;7.40;90.70
66328;DHT22;53133;52.862;6.602;2023-03-01T14:24:48;7.40;91.70
66328;DHT22;53133;52.862;6.602;2023-03-01T14:27:15;7.40;91.20
66328;DHT22;53133;52.862;6.602;2023-03-01T14:29:41;7.50;91.30
66328;DHT22;53133;52.862;6.602;2023-03-01T14:32:20;7.50;92.00
66328;DHT22;53133;52.862;6.602;2023-03-01T14:34:48;7.50;91.30
66328;DHT22;53133;52.862;6.602;2023-03-01T14:39:45;7.60;91.60
66328;DHT22;53133;52.862;6.602;2023-03-01T14:42:12;7.60;91.00
66328;DHT22;53133;52.862;6.602;2023-03-01T14:44:42;7.60;90.50
66328;DHT22;53133;52.862;6.602;2023-03-01T14:47:14;7.60;90.40
66328;DHT22;53133;52.862;6.602;2023-03-01T14:49:41;7.60;90.20
66328;DHT22;53133;52.862;6.602;2023-03-01T14:52:23;7.60;90.40
66328;DHT22;53133;52.862;6.602;2023-03-01T14:54:52;7.60;88.50
66328;DHT22;53133;52.862;6.602;2023-03-01T14:57:24;7.60;90.20
66328;DHT22;53133;52.862;6.602;2023-03-01T14:59:52;7.60;89.00
66328;DHT22;53133;52.862;6.602;2023-03-01T15:02:21;7.60;90.20
66328;DHT22;53133;52.862;6.602;2023-03-01T15:04:51;7.70;89.90
66328;DHT22;53133;52.862;6.602;2023-03-01T15:07:17;7.70;89.70
66328;DHT22;53133;52.862;6.602;2023-03-01T15:09:43;7.70;90.10
66328;DHT22;53133;52.862;6.602;2023-03-01T15:14:55;7.70;87.40
66328;DHT22;53133;52.862;6.602;2023-03-01T15:17:34;7.70;90.10
66328;DHT22;53133;52.862;6.602;2023-03-01T15:20:07;7.80;87.50
66328;DHT22;53133;52.862;6.602;2023-03-01T15:22:44;7.70;87.50
66328;DHT22;53133;52.862;6.602;2023-03-01T15:25:23;7.80;87.80
66328;DHT22;53133;52.862;6.602;2023-03-01T15:27:50;7.80;89.10
66328;DHT22;53133;52.862;6.602;2023-03-01T15:32:44;7.80;90.40
66328;DHT22;53133;52.862;6.602;2023-03-01T15:35:40;7.80;90.90
66328;DHT22;53133;52.862;6.602;2023-03-01T15:38:49;7.80;85.50
66328;DHT22;53133;52.862;6.602;2023-03-01T15:41:51;7.80;88.50
66328;DHT22;53133;52.862;6.602;2023-03-01T15:44:31;7.80;84.70
66328;DHT22;53133;52.862;6.602;2023-03-01T15:46:57;7.80;85.40
66328;DHT22;53133;52.862;6.602;2023-03-01T15:49:41;7.80;90.10
66328;DHT22;53133;52.862;6.602;2023-03-01T15:52:23;7.80;88.50
66328;DHT22;53133;52.862;6.602;2023-03-01T15:54:59;7.70;88.60
66328;DHT22;53133;52.862;6.602;2023-03-01T15:57:26;7.70;90.60
66328;DHT22;53133;52.862;6.602;2023-03-01T15:59:52;7.70;91.30
66328;DHT22;53133;52.862;6.602;2023-03-01T16:02:17;7.70;91.50
66328;DHT22;53133;52.862;6.602;2023-03-01T16:04:46;7.70;92.20
66328;DHT22;53133;52.862;6.602;2023-03-01T16:07:14;7.70;92.40
66328;DHT22;53133;52.862;6.602;2023-03-01T16:09:40;7.60;92.70
66328;DHT22;53133;52.862;6.602;2023-03-01T16:12:08;7.60;93.10
66328;DHT22;53133;52.862;6.602;2023-03-01T16:14:38;7.60;93.10
66328;DHT22;53133;52.862;6.602;2023-03-01T16:17:04;7.50;93.40
66328;DHT22;53133;52.862;6.602;2023-03-01T16:19:30;7.50;93.30
66328;DHT22;53133;52.862;6.602;2023-03-01T16:21:56;7.50;93.10
66328;DHT22;53133;52.862;6.602;2023-03-01T16:24:21;7.50;93.40
66328;DHT22;53133;52.862;6.602;2023-03-01T16:26:47;7.40;93.50
66328;DHT22;53133;52.862;6.602;2023-03-01T16:29:12;7.40;93.70
66328;DHT22;53133;52.862;6.602;2023-03-01T16:31:38;7.40;94.10
66328;DHT22;53133;52.862;6.602;2023-03-01T16:34:04;7.40;95.00
66328;DHT22;53133;52.862;6.602;2023-03-01T16:36:29;7.30;95.40
66328;DHT22;53133;52.862;6.602;2023-03-01T16:38:58;7.30;95.80
66328;DHT22;53133;52.862;6.602;2023-03-01T16:41:24;7.30;96.40
66328;DHT22;53133;52.862;6.602;2023-03-01T16:43:50;7.20;96.90
66328;DHT22;53133;52.862;6.602;2023-03-01T16:46:18;7.10;97.60
66328;DHT22;53133;52.862;6.602;2023-03-01T16:48:45;7.10;97.90
66328;DHT22;53133;52.862;6.602;2023-03-01T16:51:11;7.00;98.50
66328;DHT22;53133;52.862;6.602;2023-03-01T16:53:38;6.90;98.80
66328;DHT22;53133;52.862;6.602;2023-03-01T16:56:06;6.80;99.30
66328;DHT22;53133;52.862;6.602;2023-03-01T16:58:33;6.70;99.90
66328;DHT22;53133;52.862;6.602;2023-03-01T17:01:11;6.60;99.90
66328;DHT22;53133;52.862;6.602;2023-03-01T17:03:38;6.60;99.90
66328;DHT22;53133;52.862;6.602;2023-03-01T17:06:06;6.50;99.90
66328;DHT22;53133;52.862;6.602;2023-03-01T17:08:32;6.40;99.90
66328;DHT22;53133;52.862;6.602;2023-03-01T17:11:06;6.30;99.90
66328;DHT22;53133;52.862;6.602;2023-03-01T17:13:32;6.20;99.90
66328;DHT22;53133;52.862;6.602;2023-03-01T17:15:59;6.10;99.90
66328;DHT22;53133;52.862;6.602;2023-03-01T17:18:25;6.10;99.90
66328;DHT22;53133;52.862;6.602;2023-03-01T17:20:50;6.00;99.90
66328;DHT22;53133;52.862;6.602;2023-03-01T17:23:16;5.90;99.90
66328;DHT22;53133;52.862;6.602;2023-03-01T17:25:45;5.80;99.90
66328;DHT22;53133;52.862;6.602;2023-03-01T17:28:12;5.80;99.90
66328;DHT22;53133;52.862;6.602;2023-03-01T17:30:41;5.70;99.90
66328;DHT22;53133;52.862;6.602;2023-03-01T17:33:08;5.70;99.90